KSUU

Travis AFB Airport

Fairfield, California, USA
TAF KSUU 161859Z 1619/1801 23012G18KT 9999 SKC QNH2985INS BECMG 1700/1701 23015G25KT 9999 SKC QNH2984INS BECMG 1714/1715 23012G18KT 9999 SKC QNH2987INS BECMG 1800/1801 23015G25KT 9999 SKC QNH2986INS TX31/1623Z TN12/1712Z
Issued Valid From Valid To
Jul-16 @ 18:59 UTC
(an hour ago)
Jul-16 @ 19:00 UTC
(an hour ago)
Jul-18 @ 01:00 UTC
(-1 days ago)
Jul-16 @ 19:00 to Jul-17 @ 00:00
TAF KSUU 161859Z 1619/1801 23012G18KT 9999 SKC QNH2985INS
Wind Visibility Clouds Readings
230° at 12 knots
 Gusting to 18 knots
Greater than 6 miles
  • Clear skies
Altimeter 29.85" Hg
Pressure 1011 hPa
Becoming Jul-17 @ 00:00 to Jul-17 @ 14:00
BECMG 1700/1701 23015G25KT 9999 SKC QNH2984INS
Wind Visibility Clouds Readings
230° at 15 knots
 Gusting to 25 knots
Greater than 6 miles
  • Clear skies
Altimeter 29.85" Hg
Pressure 1011 hPa
Becoming Jul-17 @ 14:00 to Jul-18 @ 00:00
BECMG 1714/1715 23012G18KT 9999 SKC QNH2987INS
Wind Visibility Clouds Readings
230° at 12 knots
 Gusting to 18 knots
Greater than 6 miles
  • Clear skies
Altimeter 29.88" Hg
Pressure 1012 hPa
Becoming Jul-18 @ 00:00 to Jul-18 @ 01:00
BECMG 1800/1801 23015G25KT 9999 SKC QNH2986INS TX31/1623Z TN12/1712Z
Wind Visibility Clouds Readings
230° at 15 knots
 Gusting to 25 knots
Greater than 6 miles
  • Clear skies
Altimeter 29.85" Hg
Pressure 1011 hPa
TAF KSUU 161859Z 1619/1801 23012G18KT 9999 SKC QNH2985INS BECMG 1700/1701 23015G25KT 9999 SKC QNH2984INS BECMG 1714/1715 23012G18KT 9999 SKC QNH2987INS BECMG 1800/1801 23015G25KT 9999 SKC QNH2986INS TX31/1623Z TN12/1712Z
Issued Jul-16 @ 18:59 UTC
(an hour ago)
Valid From Jul-16 @ 19:00 UTC
(an hour ago)
Valid To Jul-18 @ 01:00 UTC
(-1 days ago)
Jul-16 @ 19:00 - Jul-17 @ 00:00
Wind Visibility
230° at 12 knots
 Gusting to 18 knots
Greater than 6 miles
Clouds
  • Clear skies
Becoming Jul-17 @ 00:00 - Jul-17 @ 14:00
Wind Visibility
230° at 15 knots
 Gusting to 25 knots
Greater than 6 miles
Clouds
  • Clear skies
Becoming Jul-17 @ 14:00 - Jul-18 @ 00:00
Wind Visibility
230° at 12 knots
 Gusting to 18 knots
Greater than 6 miles
Clouds
  • Clear skies
Becoming Jul-18 @ 00:00 - Jul-18 @ 01:00
Wind Visibility
230° at 15 knots
 Gusting to 25 knots
Greater than 6 miles
Clouds
  • Clear skies